Time;durP1;ratioP1;P1;durP2;ratioP2;P2;SDS_P1;SDS_P2;PMS_P1;PMS_P2;Temp;Humidity;BMP_temperature;BMP_pressure;BME280_temperature;BME280_humidity;BME280_pressure;Samples;Min_cycle;Max_cycle;Signal;HPM_P1;HPM_P2
2022/04/02 00:01:43;;;;;;;13.77;7.93;;;-0.20;99.90;;;;;;5078971;28;20200;-65
2022/04/02 00:04:10;;;;;;;13.30;7.70;;;-0.20;99.90;;;;;;5072161;28;20444;-65
2022/04/02 00:06:36;;;;;;;10.77;6.27;;;-0.20;99.90;;;;;;5066629;28;20425;-66
2022/04/02 00:09:03;;;;;;;12.97;6.60;;;-0.20;99.90;;;;;;5082698;28;20433;-67
2022/04/02 00:11:29;;;;;;;12.77;7.30;;;-0.20;99.90;;;;;;5075510;28;20469;-67
2022/04/02 00:13:55;;;;;;;8.07;5.40;;;-0.20;99.90;;;;;;5073207;28;20890;-66
2022/04/02 00:16:20;;;;;;;13.73;6.50;;;-0.20;99.90;;;;;;5074484;28;20331;-67
2022/04/02 00:18:49;;;;;;;12.20;6.63;;;-0.20;99.90;;;;;;5064271;28;20261;-68
2022/04/02 00:21:15;;;;;;;10.00;6.30;;;-0.20;99.90;;;;;;5076100;28;20228;-67
2022/04/02 00:23:44;;;;;;;14.47;7.17;;;-0.20;99.90;;;;;;5071829;28;20488;-67
2022/04/02 00:26:14;;;;;;;11.73;6.27;;;-0.20;99.90;;;;;;5077768;28;20926;-66
2022/04/02 00:28:42;;;;;;;9.93;7.07;;;-0.20;99.90;;;;;;5071614;28;20419;-66
2022/04/02 00:31:09;;;;;;;12.50;6.77;;;-0.20;99.90;;;;;;5078660;28;20449;-67
2022/04/02 00:33:35;;;;;;;12.13;7.03;;;-0.20;99.90;;;;;;5072513;28;21029;-67
2022/04/02 00:36:01;;;;;;;10.37;6.87;;;-0.20;99.90;;;;;;5081613;28;20434;-66
2022/04/02 00:38:27;;;;;;;11.47;6.60;;;-0.20;99.90;;;;;;5067040;28;20430;-67
2022/04/02 00:40:53;;;;;;;11.60;6.20;;;-0.10;99.90;;;;;;5058523;28;20474;-67
2022/04/02 00:43:25;;;;;;;11.07;5.97;;;-0.10;99.90;;;;;;5079614;28;20196;-67
2022/04/02 00:45:53;;;;;;;7.60;4.63;;;-0.20;99.90;;;;;;5076348;28;20569;-66
2022/04/02 00:48:20;;;;;;;8.60;5.03;;;-0.20;99.90;;;;;;5079698;28;20433;-69
2022/04/02 00:50:47;;;;;;;8.73;5.50;;;-0.20;99.90;;;;;;5084774;28;20454;-66
2022/04/02 00:53:14;;;;;;;24.00;5.23;;;-0.10;99.90;;;;;;5057504;28;20423;-67
2022/04/02 00:55:42;;;;;;;10.80;4.87;;;-0.10;99.90;;;;;;5081788;28;20423;-67
2022/04/02 00:58:11;;;;;;;9.53;5.60;;;-0.10;99.90;;;;;;5075123;28;20441;-67
2022/04/02 01:00:37;;;;;;;9.03;6.07;;;-0.10;99.90;;;;;;5079476;28;20442;-66
2022/04/02 01:03:03;;;;;;;13.00;7.00;;;-0.10;99.90;;;;;;5066984;28;20422;-65
2022/04/02 01:05:29;;;;;;;9.63;5.17;;;-0.10;99.90;;;;;;5064234;28;20426;-66
2022/04/02 01:07:55;;;;;;;9.33;5.00;;;-0.10;99.90;;;;;;5079184;28;20413;-66
2022/04/02 01:10:23;;;;;;;9.27;5.40;;;-0.10;99.90;;;;;;5079823;28;20938;-66
2022/04/02 01:12:49;;;;;;;11.60;5.60;;;-0.10;99.90;;;;;;5077585;28;21230;-65
2022/04/02 01:15:14;;;;;;;12.77;5.97;;;-0.10;99.90;;;;;;5073718;28;20419;-68
2022/04/02 01:17:40;;;;;;;11.20;6.97;;;-0.20;99.90;;;;;;5066959;28;20405;-64
2022/04/02 01:20:10;;;;;;;11.50;6.73;;;-0.10;99.90;;;;;;5072624;28;20587;-66
2022/04/02 01:22:36;;;;;;;11.80;6.93;;;-0.20;99.90;;;;;;5074264;28;20211;-68
2022/04/02 01:25:05;;;;;;;10.37;6.43;;;-0.20;99.90;;;;;;5064171;28;20466;-67
2022/04/02 01:27:31;;;;;;;11.90;6.87;;;-0.10;99.90;;;;;;5066853;28;20430;-69
2022/04/02 01:29:57;;;;;;;11.80;7.10;;;-0.10;99.90;;;;;;5074527;28;20422;-67
2022/04/02 01:32:22;;;;;;;10.67;6.43;;;-0.10;99.90;;;;;;5065676;28;20613;-67
2022/04/02 01:34:48;;;;;;;12.63;7.20;;;-0.10;99.90;;;;;;5067267;28;20201;-66
2022/04/02 01:37:15;;;;;;;11.80;6.97;;;-0.10;99.90;;;;;;5068557;28;20192;-67
2022/04/02 01:39:42;;;;;;;14.30;7.60;;;-0.10;99.90;;;;;;5073747;28;20203;-67
2022/04/02 01:42:07;;;;;;;14.77;7.23;;;0.00;99.90;;;;;;5078518;28;20528;-66
2022/04/02 01:44:33;;;;;;;14.97;8.10;;;-0.10;99.90;;;;;;5076681;28;20426;-67
2022/04/02 01:46:59;;;;;;;17.20;8.97;;;0.00;99.90;;;;;;5070974;28;20202;-68
2022/04/02 01:49:25;;;;;;;18.07;8.60;;;-0.10;99.90;;;;;;5067739;28;20173;-67
2022/04/02 01:51:51;;;;;;;14.87;9.30;;;-0.10;99.90;;;;;;5065657;28;20449;-66
2022/04/02 01:54:20;;;;;;;17.80;9.03;;;-0.10;99.90;;;;;;5079555;28;20732;-67
2022/04/02 01:56:47;;;;;;;18.37;9.67;;;-0.10;99.90;;;;;;5073792;28;20180;-67
2022/04/02 01:59:13;;;;;;;15.43;8.17;;;-0.10;99.90;;;;;;5068967;28;20427;-66
2022/04/02 02:01:39;;;;;;;17.57;9.67;;;-0.10;99.90;;;;;;5074496;28;21007;-66
2022/04/02 02:04:05;;;;;;;16.87;9.00;;;0.00;99.90;;;;;;5069732;28;20288;-67
2022/04/02 02:06:31;;;;;;;19.90;8.97;;;-0.10;99.90;;;;;;5079257;28;20478;-67
2022/04/02 02:08:57;;;;;;;16.43;9.80;;;-0.10;99.90;;;;;;5080128;28;20179;-66
2022/04/02 02:11:23;;;;;;;16.37;8.73;;;0.00;99.90;;;;;;5066893;28;20441;-67
2022/04/02 02:13:49;;;;;;;17.00;9.07;;;0.00;99.90;;;;;;5071464;28;20419;-69
2022/04/02 02:16:14;;;;;;;18.87;9.73;;;-0.10;99.90;;;;;;5079025;28;20180;-67
2022/04/02 02:18:40;;;;;;;17.90;9.87;;;-0.10;99.90;;;;;;5072169;28;20212;-66
2022/04/02 02:21:07;;;;;;;21.03;10.63;;;0.00;99.90;;;;;;5065177;28;20217;-66
2022/04/02 02:23:32;;;;;;;16.20;9.10;;;0.00;99.90;;;;;;5065866;28;20254;-66
2022/04/02 02:25:58;;;;;;;19.93;9.60;;;0.00;99.90;;;;;;5066739;28;20423;-67
2022/04/02 02:28:24;;;;;;;19.23;10.27;;;-0.10;99.90;;;;;;5065153;28;20181;-67
2022/04/02 02:30:49;;;;;;;17.70;8.87;;;-0.10;99.90;;;;;;5072544;28;20695;-67
2022/04/02 02:36:00;;;;;;;19.97;10.07;;;0.00;99.90;;;;;;5077008;28;20235;-68
2022/04/02 02:38:25;;;;;;;19.20;9.40;;;-0.10;99.90;;;;;;5076521;28;20445;-66
2022/04/02 02:40:52;;;;;;;19.73;7.83;;;-0.10;99.90;;;;;;5081347;28;20217;-67
2022/04/02 02:43:19;;;;;;;14.90;8.63;;;0.00;99.90;;;;;;5071763;28;20197;-65
2022/04/02 02:45:45;;;;;;;16.57;9.60;;;0.00;99.90;;;;;;5081482;28;20426;-67
2022/04/02 02:48:11;;;;;;;16.37;7.40;;;-0.10;99.90;;;;;;5067251;28;20466;-67
2022/04/02 02:50:37;;;;;;;11.97;8.47;;;-0.10;99.90;;;;;;5075020;28;20197;-66
2022/04/02 02:53:03;;;;;;;14.43;7.67;;;0.00;99.90;;;;;;5080952;28;20955;-67
2022/04/02 02:55:29;;;;;;;13.30;8.20;;;0.00;99.90;;;;;;5082981;28;20173;-68
2022/04/02 02:57:55;;;;;;;20.27;8.87;;;-0.10;99.90;;;;;;5075892;28;20189;-66
2022/04/02 03:00:21;;;;;;;13.00;7.97;;;-0.10;99.90;;;;;;5067253;28;20945;-68
2022/04/02 03:02:47;;;;;;;16.50;8.60;;;0.00;99.90;;;;;;5074833;28;20688;-66
2022/04/02 03:05:16;;;;;;;16.67;7.90;;;0.00;99.90;;;;;;5079402;28;20421;-66
2022/04/02 03:07:50;;;;;;;11.03;6.60;;;0.00;99.90;;;;;;5067897;28;20209;-67
2022/04/02 03:10:23;;;;;;;12.93;7.50;;;0.00;99.90;;;;;;5084624;28;20471;-67
2022/04/02 03:12:52;;;;;;;14.20;7.93;;;-0.10;99.90;;;;;;5068218;28;20780;-66
2022/04/02 03:15:19;;;;;;;16.10;6.63;;;0.00;99.90;;;;;;5066428;28;20463;-67
2022/04/02 03:17:45;;;;;;;20.17;8.20;;;0.00;99.90;;;;;;5070887;28;20800;-66
2022/04/02 03:20:13;;;;;;;11.83;6.23;;;0.00;99.90;;;;;;5068847;28;20447;-68
2022/04/02 03:22:40;;;;;;;11.70;6.70;;;0.00;99.90;;;;;;5071391;28;20451;-67
2022/04/02 03:25:18;;;;;;;14.90;7.23;;;-0.10;99.90;;;;;;5065390;28;20420;-69
2022/04/02 03:27:44;;;;;;;11.83;6.13;;;0.00;99.90;;;;;;5071525;28;20716;-66
2022/04/02 03:30:12;;;;;;;13.93;7.33;;;-0.10;99.90;;;;;;5069081;28;20457;-68
2022/04/02 03:32:38;;;;;;;13.90;6.33;;;0.00;99.90;;;;;;5072081;28;20443;-67
2022/04/02 03:35:05;;;;;;;12.40;7.07;;;-0.10;99.90;;;;;;5073350;28;20423;-67
2022/04/02 03:37:31;;;;;;;13.50;6.37;;;-0.10;99.90;;;;;;5071201;28;20435;-67
2022/04/02 03:39:58;;;;;;;11.97;6.57;;;-0.10;99.90;;;;;;5077633;28;20434;-67
2022/04/02 03:42:23;;;;;;;8.40;5.43;;;-0.10;99.90;;;;;;5065992;28;20752;-65
2022/04/02 03:44:49;;;;;;;11.97;6.33;;;0.00;99.90;;;;;;5073335;28;20419;-67
2022/04/02 03:47:15;;;;;;;11.87;6.10;;;-0.10;99.90;;;;;;5074232;28;20686;-67
2022/04/02 03:49:46;;;;;;;11.50;5.90;;;-0.10;99.90;;;;;;5070694;28;20529;-67
2022/04/02 03:52:13;;;;;;;10.03;5.10;;;-0.10;99.90;;;;;;5082301;28;20847;-67
2022/04/02 03:54:39;;;;;;;7.50;4.80;;;-0.10;99.90;;;;;;5081099;28;20503;-67
2022/04/02 03:57:09;;;;;;;11.00;5.60;;;-0.10;99.90;;;;;;5080538;28;20505;-66
2022/04/02 03:59:36;;;;;;;12.20;6.10;;;-0.10;99.90;;;;;;5067661;28;20426;-69
2022/04/02 04:02:04;;;;;;;9.03;5.43;;;-0.20;99.90;;;;;;5084389;28;20473;-68
2022/04/02 04:04:31;;;;;;;10.30;6.00;;;-0.20;99.90;;;;;;5081521;28;20878;-66
2022/04/02 04:06:57;;;;;;;8.47;5.27;;;-0.20;99.90;;;;;;5084865;28;20473;-68
2022/04/02 04:09:23;;;;;;;11.40;4.57;;;-0.20;99.90;;;;;;5083119;28;20418;-67
2022/04/02 04:11:49;;;;;;;13.57;6.83;;;-0.20;99.90;;;;;;5071630;28;21012;-67
2022/04/02 04:14:15;;;;;;;16.07;5.77;;;-0.20;99.90;;;;;;5080191;28;20177;-67
2022/04/02 04:16:44;;;;;;;16.50;5.17;;;-0.30;99.90;;;;;;5070000;28;20784;-66
2022/04/02 04:19:10;;;;;;;9.83;4.50;;;-0.30;99.90;;;;;;5068395;28;20411;-67
2022/04/02 04:21:36;;;;;;;11.27;5.43;;;-0.30;99.90;;;;;;5064762;28;20479;-67
2022/04/02 04:24:07;;;;;;;10.57;6.30;;;-0.30;99.90;;;;;;5067244;28;20580;-68
2022/04/02 04:26:33;;;;;;;11.93;5.50;;;-0.30;99.90;;;;;;5069191;28;20415;-67
2022/04/02 04:28:59;;;;;;;10.13;5.50;;;-0.40;99.90;;;;;;5071461;28;20437;-67
2022/04/02 04:31:24;;;;;;;17.43;4.70;;;-0.40;99.90;;;;;;5069548;28;20588;-68
2022/04/02 04:33:50;;;;;;;11.40;5.60;;;-0.40;99.90;;;;;;5072504;28;20695;-66
2022/04/02 04:36:18;;;;;;;9.90;4.80;;;-0.40;99.90;;;;;;5069429;28;20609;-66
2022/04/02 04:38:45;;;;;;;9.50;5.40;;;-0.40;99.90;;;;;;5078446;28;20208;-67
2022/04/02 04:41:11;;;;;;;15.33;5.23;;;-0.50;99.90;;;;;;5074789;28;20496;-68
2022/04/02 04:43:37;;;;;;;10.23;5.63;;;-0.50;99.90;;;;;;5086098;28;20434;-66
2022/04/02 04:46:04;;;;;;;8.87;4.77;;;-0.50;99.90;;;;;;5081311;28;20428;-68
2022/04/02 04:48:30;;;;;;;12.20;5.57;;;-0.50;99.90;;;;;;5073496;28;20208;-67
2022/04/02 04:50:56;;;;;;;11.93;5.13;;;-0.50;99.90;;;;;;5072725;28;20446;-68
2022/04/02 04:53:22;;;;;;;14.93;5.90;;;-0.50;99.90;;;;;;5063681;28;20528;-68
2022/04/02 04:55:48;;;;;;;5.90;4.10;;;-0.50;99.90;;;;;;5071906;28;20515;-66
2022/04/02 04:58:14;;;;;;;9.10;5.53;;;-0.50;99.90;;;;;;5074864;28;20266;-69
2022/04/02 05:00:42;;;;;;;13.40;6.30;;;-0.50;99.90;;;;;;5074863;28;20634;-67
2022/04/02 05:03:11;;;;;;;9.30;4.57;;;-0.50;99.90;;;;;;5081110;28;20406;-67
2022/04/02 05:05:37;;;;;;;7.97;4.40;;;-0.50;99.90;;;;;;5075029;28;20429;-67
2022/04/02 05:08:03;;;;;;;15.40;5.73;;;-0.50;99.90;;;;;;5084102;28;20453;-66
2022/04/02 05:10:29;;;;;;;8.43;4.60;;;-0.50;99.90;;;;;;5078534;28;20422;-68
2022/04/02 05:12:54;;;;;;;12.47;5.07;;;-0.50;99.90;;;;;;5068614;28;20419;-65
2022/04/02 05:15:20;;;;;;;10.23;4.47;;;-0.50;99.90;;;;;;5062602;28;20185;-68
2022/04/02 05:17:46;;;;;;;7.00;4.47;;;-0.50;99.90;;;;;;5064958;28;20180;-68
2022/04/02 05:20:14;;;;;;;7.27;4.27;;;-0.40;99.90;;;;;;5066636;28;20473;-67
2022/04/02 05:22:41;;;;;;;8.57;5.23;;;-0.40;99.90;;;;;;5069542;28;20607;-67
2022/04/02 05:25:07;;;;;;;5.53;3.63;;;-0.50;99.90;;;;;;5068101;28;20828;-65
2022/04/02 05:27:33;;;;;;;9.10;4.00;;;-0.50;99.90;;;;;;5071251;28;20426;-67
2022/04/02 05:30:00;;;;;;;6.30;3.70;;;-0.50;99.90;;;;;;5068395;28;20422;-68
2022/04/02 05:32:28;;;;;;;12.03;4.67;;;-0.50;99.90;;;;;;5072607;28;20525;-66
2022/04/02 05:34:54;;;;;;;11.23;5.60;;;-0.50;99.90;;;;;;5070893;28;20449;-66
2022/04/02 05:37:19;;;;;;;8.60;4.07;;;-0.50;99.90;;;;;;5071644;28;20476;-66
2022/04/02 05:39:45;;;;;;;8.13;5.00;;;-0.50;99.90;;;;;;5081644;28;21178;-67
2022/04/02 05:42:12;;;;;;;8.90;5.17;;;-0.50;99.90;;;;;;5071938;28;20224;-67
2022/04/02 05:44:39;;;;;;;6.17;3.43;;;-0.40;99.90;;;;;;5078463;28;20177;-67
2022/04/02 05:47:05;;;;;;;5.30;3.40;;;-0.40;99.90;;;;;;5075158;28;20523;-66
2022/04/02 05:49:31;;;;;;;6.77;4.00;;;-0.40;99.90;;;;;;5071666;28;20424;-65
2022/04/02 05:51:57;;;;;;;6.90;3.87;;;-0.40;99.90;;;;;;5072654;28;20469;-66
2022/04/02 05:54:23;;;;;;;7.40;3.40;;;-0.40;99.90;;;;;;5064037;28;20533;-66
2022/04/02 05:56:49;;;;;;;5.87;3.97;;;-0.40;99.90;;;;;;5076566;28;20922;-66
2022/04/02 05:59:15;;;;;;;10.43;5.00;;;-0.40;99.90;;;;;;5064621;28;20229;-67
2022/04/02 06:01:41;;;;;;;7.50;4.10;;;-0.40;99.90;;;;;;5066681;28;20467;-67
2022/04/02 06:04:07;;;;;;;8.10;4.50;;;-0.40;99.90;;;;;;5066015;28;20274;-67
2022/04/02 06:06:32;;;;;;;9.23;4.03;;;-0.40;99.90;;;;;;5069177;28;20188;-67
2022/04/02 06:08:58;;;;;;;7.40;4.07;;;-0.40;99.90;;;;;;5079826;28;20215;-66
2022/04/02 06:11:24;;;;;;;6.93;3.47;;;-0.40;99.90;;;;;;5067719;28;20246;-66
2022/04/02 06:13:50;;;;;;;6.33;3.70;;;-0.30;99.90;;;;;;5074131;28;20586;-67
2022/04/02 06:16:16;;;;;;;10.10;3.70;;;-0.30;99.90;;;;;;5083585;28;21114;-66
2022/04/02 06:18:43;;;;;;;7.30;4.47;;;-0.20;99.90;;;;;;5079913;28;20427;-66
2022/04/02 06:21:11;;;;;;;8.80;4.60;;;-0.20;99.90;;;;;;5074459;28;20474;-66
2022/04/02 06:23:37;;;;;;;7.77;3.80;;;-0.20;99.90;;;;;;5072202;28;20534;-65
2022/04/02 06:26:02;;;;;;;6.97;3.90;;;-0.10;99.90;;;;;;5076607;28;20513;-67
2022/04/02 06:28:28;;;;;;;6.50;3.50;;;-0.10;99.90;;;;;;5072227;28;20183;-70
2022/04/02 06:30:54;;;;;;;6.67;4.20;;;0.00;99.90;;;;;;5078119;28;20321;-68
2022/04/02 06:33:19;;;;;;;8.03;4.00;;;0.00;99.90;;;;;;5073422;28;20174;-68
2022/04/02 06:35:45;;;;;;;5.77;3.80;;;0.10;99.90;;;;;;5079627;28;20181;-68
2022/04/02 06:38:10;;;;;;;12.83;3.10;;;0.00;99.90;;;;;;5085048;28;20318;-68
2022/04/02 06:40:36;;;;;;;8.90;2.60;;;0.00;99.90;;;;;;5080303;28;20197;-69
2022/04/02 06:43:02;;;;;;;5.93;3.10;;;0.00;99.90;;;;;;5073332;28;20579;-69
2022/04/02 06:45:28;;;;;;;3.67;2.77;;;0.00;99.90;;;;;;5080130;28;20185;-68
2022/04/02 06:47:53;;;;;;;8.20;3.87;;;0.10;99.90;;;;;;5067565;28;20491;-69
2022/04/02 06:50:19;;;;;;;6.20;3.40;;;0.10;99.90;;;;;;5068204;28;20185;-68
2022/04/02 06:52:45;;;;;;;4.93;3.33;;;0.20;99.90;;;;;;5074207;28;20191;-69
2022/04/02 06:55:13;;;;;;;6.00;2.80;;;0.20;99.90;;;;;;5087944;28;20184;-69
2022/04/02 06:57:43;;;;;;;6.10;3.20;;;0.20;99.90;;;;;;5077069;28;20450;-69
2022/04/02 07:00:10;;;;;;;6.40;3.57;;;0.30;99.90;;;;;;5068403;28;20427;-68
2022/04/02 07:02:36;;;;;;;7.70;3.30;;;0.20;99.90;;;;;;5069469;28;20470;-65
2022/04/02 07:05:02;;;;;;;5.30;3.30;;;0.30;99.90;;;;;;5087484;28;20429;-65
2022/04/02 07:07:27;;;;;;;6.40;3.10;;;0.30;99.90;;;;;;5084173;28;20438;-66
2022/04/02 07:09:53;;;;;;;5.80;2.97;;;0.30;99.90;;;;;;5085805;28;20184;-66
2022/04/02 07:12:18;;;;;;;7.50;3.40;;;0.30;99.90;;;;;;5074050;28;20208;-66
2022/04/02 07:14:44;;;;;;;5.53;3.50;;;0.40;99.90;;;;;;5076964;28;20656;-67
2022/04/02 07:17:10;;;;;;;9.10;4.77;;;0.40;99.90;;;;;;5073094;28;20189;-67
2022/04/02 07:19:37;;;;;;;6.60;2.67;;;0.40;99.90;;;;;;5066188;28;20696;-63
2022/04/02 07:22:09;;;;;;;5.67;3.03;;;0.40;99.90;;;;;;5065865;28;20222;-65
2022/04/02 07:24:39;;;;;;;8.10;3.60;;;0.30;99.90;;;;;;5074855;28;20440;-65
2022/04/02 07:27:05;;;;;;;3.70;2.60;;;0.30;99.90;;;;;;5071442;28;20425;-65
2022/04/02 07:29:35;;;;;;;5.67;2.73;;;0.20;99.90;;;;;;5075289;28;21151;-65
2022/04/02 07:32:01;;;;;;;5.80;3.00;;;0.20;99.90;;;;;;5082937;28;20466;-66
2022/04/02 07:34:27;;;;;;;7.90;3.30;;;0.20;99.90;;;;;;5077087;28;20458;-66
2022/04/02 07:37:20;;;;;;;5.63;3.00;;;0.10;99.90;;;;;;5074441;28;20427;-65
2022/04/02 07:40:11;;;;;;;7.60;3.17;;;0.10;99.90;;;;;;5080922;28;20472;-65
2022/04/02 07:43:19;;;;;;;10.77;4.00;;;0.20;99.90;;;;;;5081712;28;20492;-65
2022/04/02 07:45:45;;;;;;;6.73;4.07;;;0.20;99.90;;;;;;5045838;28;20453;-65
2022/04/02 07:48:11;;;;;;;5.13;3.07;;;0.20;99.90;;;;;;5073843;28;20446;-65
2022/04/02 07:50:47;;;;;;;9.60;5.17;;;0.20;99.90;;;;;;5080463;28;20950;-66
2022/04/02 07:53:22;;;;;;;7.87;4.67;;;0.20;99.90;;;;;;5077330;28;20184;-66
2022/04/02 07:56:02;;;;;;;8.37;4.57;;;0.20;99.90;;;;;;5084474;28;20406;-65
2022/04/02 07:58:30;;;;;;;5.17;3.37;;;0.20;99.90;;;;;;5071245;28;20416;-66
2022/04/02 08:00:58;;;;;;;6.37;3.03;;;0.30;99.90;;;;;;5065099;28;20597;-65
2022/04/02 08:03:24;;;;;;;7.70;3.33;;;0.30;99.90;;;;;;5083164;28;20580;-65
2022/04/02 08:05:53;;;;;;;6.60;3.83;;;0.30;99.90;;;;;;5072358;28;20518;-65
2022/04/02 08:08:20;;;;;;;6.90;3.27;;;0.30;99.90;;;;;;5074756;28;20307;-66
2022/04/02 08:10:50;;;;;;;8.07;4.00;;;0.20;99.90;;;;;;5077561;28;20441;-66
2022/04/02 08:13:15;;;;;;;5.97;3.27;;;0.20;99.90;;;;;;5061975;28;20423;-65
2022/04/02 08:15:41;;;;;;;4.73;3.40;;;0.20;99.90;;;;;;5075961;28;20424;-65
2022/04/02 08:18:07;;;;;;;9.90;3.30;;;0.20;99.90;;;;;;5075559;28;20230;-65
2022/04/02 08:20:33;;;;;;;4.23;2.90;;;0.20;99.90;;;;;;5072258;28;20788;-66
2022/04/02 08:23:01;;;;;;;6.83;4.13;;;0.20;99.90;;;;;;5066040;28;20294;-66
2022/04/02 08:25:28;;;;;;;5.57;3.10;;;0.20;99.90;;;;;;5078796;28;20422;-66
2022/04/02 08:28:11;;;;;;;3.87;2.57;;;0.30;99.90;;;;;;5077395;28;20540;-66
2022/04/02 08:31:04;;;;;;;6.20;3.70;;;0.30;99.90;;;;;;5064449;28;20451;-66
2022/04/02 08:33:44;;;;;;;4.23;2.77;;;0.30;99.90;;;;;;5059675;28;20504;-66
2022/04/02 08:36:28;;;;;;;6.17;3.73;;;0.40;99.90;;;;;;5075893;28;20414;-66
2022/04/02 08:39:04;;;;;;;4.50;3.17;;;0.40;99.90;;;;;;5078732;28;20451;-67
2022/04/02 08:42:20;;;;;;;13.40;3.33;;;0.30;99.90;;;;;;5079620;28;20937;-65
2022/04/02 08:45:08;;;;;;;3.47;2.20;;;0.20;99.90;;;;;;5021790;28;20421;-66
2022/04/02 08:48:11;;;;;;;6.33;3.70;;;0.30;99.90;;;;;;5079553;28;20488;-65
2022/04/02 08:50:46;;;;;;;5.20;2.67;;;0.30;99.90;;;;;;5078556;28;21170;-67
2022/04/02 08:53:16;;;;;;;4.13;2.93;;;0.40;99.90;;;;;;5085157;28;20510;-66
2022/04/02 08:55:49;;;;;;;5.43;3.00;;;0.30;99.90;;;;;;5076820;28;20407;-66
2022/04/02 08:58:43;;;;;;;4.50;3.00;;;0.30;99.90;;;;;;5067956;28;20489;-66
2022/04/02 09:01:10;;;;;;;5.50;3.30;;;0.40;99.90;;;;;;5068939;28;20463;-67
2022/04/02 09:04:07;;;;;;;5.30;2.73;;;0.40;99.90;;;;;;5063900;28;20484;-66
2022/04/02 09:07:04;;;;;;;5.83;3.27;;;0.50;99.90;;;;;;5074293;28;20419;-64
2022/04/02 09:09:58;;;;;;;5.13;2.83;;;0.50;99.90;;;;;;5078679;28;20947;-67
2022/04/02 09:12:42;;;;;;;5.17;2.80;;;0.50;99.90;;;;;;5075142;28;20614;-65
2022/04/02 09:15:35;;;;;;;6.70;3.60;;;0.50;99.90;;;;;;5079569;28;21220;-66
2022/04/02 09:18:21;;;;;;;5.77;3.20;;;0.50;99.90;;;;;;5063745;28;20503;-66
2022/04/02 09:21:17;;;;;;;10.77;4.30;;;0.50;99.90;;;;;;5070995;28;20508;-67
2022/04/02 09:23:44;;;;;;;8.00;4.60;;;0.50;99.90;;;;;;5065495;28;20506;-67
2022/04/02 09:26:48;;;;;;;5.83;3.03;;;0.50;99.90;;;;;;5078008;28;20422;-66
2022/04/02 09:29:23;;;;;;;6.77;4.13;;;0.60;99.90;;;;;;5076157;28;20505;-67
2022/04/02 09:32:07;;;;;;;5.20;3.80;;;0.40;99.90;;;;;;5064137;28;20512;-68
2022/04/02 09:35:03;;;;;;;7.87;3.50;;;0.40;99.90;;;;;;5062358;28;20480;-68
2022/04/02 09:37:29;;;;;;;8.50;3.90;;;0.40;99.90;;;;;;5077521;28;20411;-67
2022/04/02 09:40:06;;;;;;;5.67;3.67;;;0.50;99.90;;;;;;5073818;28;20407;-67
2022/04/02 09:42:51;;;;;;;8.30;3.60;;;0.60;99.90;;;;;;5079259;28;20315;-68
2022/04/02 09:45:21;;;;;;;7.60;4.10;;;0.70;99.90;;;;;;5079502;28;20789;-67
2022/04/02 09:48:16;;;;;;;6.43;4.17;;;0.70;99.90;;;;;;5080868;28;20465;-68
2022/04/02 09:50:44;;;;;;;7.10;3.90;;;0.80;99.90;;;;;;5088118;28;20446;-67
2022/04/02 09:53:24;;;;;;;6.50;4.03;;;0.80;99.90;;;;;;5085910;28;20453;-67
2022/04/02 09:56:09;;;;;;;9.10;3.70;;;0.80;99.90;;;;;;5084088;28;20509;-67
2022/04/02 09:59:01;;;;;;;7.00;3.60;;;0.70;99.90;;;;;;5088334;28;20467;-67
2022/04/02 10:01:54;;;;;;;8.77;4.63;;;0.70;99.90;;;;;;5086474;28;21079;-67
2022/04/02 10:04:40;;;;;;;5.07;3.37;;;0.70;99.90;;;;;;5085020;28;20445;-67
2022/04/02 10:07:21;;;;;;;7.73;3.80;;;0.50;99.90;;;;;;5079265;28;20956;-66
2022/04/02 10:09:53;;;;;;;7.03;4.03;;;0.30;99.90;;;;;;5069164;28;20874;-67
2022/04/02 10:12:23;;;;;;;6.90;4.23;;;0.20;99.90;;;;;;5088325;28;20450;-66
2022/04/02 10:14:56;;;;;;;7.43;4.00;;;0.10;99.90;;;;;;5082467;28;20419;-67
2022/04/02 10:17:28;;;;;;;7.27;4.20;;;0.00;99.90;;;;;;5087077;28;20458;-67
2022/04/02 10:19:56;;;;;;;13.80;4.57;;;0.10;99.90;;;;;;5066617;28;20422;-67
2022/04/02 10:22:37;;;;;;;10.50;5.40;;;0.20;99.90;;;;;;5068704;28;20481;-67
2022/04/02 10:25:06;;;;;;;7.90;5.10;;;0.30;99.90;;;;;;5069457;28;20547;-67
2022/04/02 10:27:35;;;;;;;6.97;4.50;;;0.30;99.90;;;;;;5066597;28;20453;-67
2022/04/02 10:30:01;;;;;;;10.70;4.47;;;0.30;99.90;;;;;;5069279;28;20441;-67
2022/04/02 10:32:51;;;;;;;7.47;4.47;;;0.30;99.90;;;;;;5071023;28;21237;-67
2022/04/02 10:35:17;;;;;;;9.23;5.03;;;0.30;99.90;;;;;;5079962;28;20196;-66
2022/04/02 10:37:57;;;;;;;6.83;4.53;;;0.30;99.90;;;;;;5071172;28;20496;-67
2022/04/02 10:40:25;;;;;;;8.20;5.20;;;0.50;99.90;;;;;;5076219;28;20951;-68
2022/04/02 10:42:59;;;;;;;8.50;4.60;;;0.60;99.90;;;;;;5070740;28;20540;-67
2022/04/02 10:45:28;;;;;;;6.87;4.00;;;0.60;99.90;;;;;;5080237;28;20422;-68
2022/04/02 10:47:57;;;;;;;6.70;3.70;;;0.60;99.90;;;;;;5072161;28;20873;-68
2022/04/02 10:50:24;;;;;;;7.97;4.90;;;0.80;99.90;;;;;;5072754;28;20499;-69
2022/04/02 10:52:51;;;;;;;12.47;5.30;;;0.80;99.90;;;;;;5080458;28;20446;-68
2022/04/02 10:55:20;;;;;;;8.87;5.23;;;0.70;99.90;;;;;;5079886;28;20431;-67
2022/04/02 10:57:47;;;;;;;8.70;4.70;;;0.80;99.90;;;;;;5078237;28;20423;-68
2022/04/02 11:00:13;;;;;;;9.27;3.83;;;0.90;99.90;;;;;;5067749;28;20536;-67
2022/04/02 11:02:40;;;;;;;5.53;4.20;;;0.90;99.90;;;;;;5073172;28;20475;-66
2022/04/02 11:05:07;;;;;;;7.80;4.40;;;0.60;99.90;;;;;;5078597;28;20922;-67
2022/04/02 11:07:40;;;;;;;8.00;4.67;;;0.60;99.90;;;;;;5080721;28;20514;-66
2022/04/02 11:10:07;;;;;;;5.93;4.00;;;0.60;99.90;;;;;;5081044;28;20560;-66
2022/04/02 11:12:45;;;;;;;5.63;3.17;;;0.70;99.90;;;;;;5082915;28;20498;-67
2022/04/02 11:15:19;;;;;;;7.10;3.97;;;0.60;99.90;;;;;;5063154;28;20435;-66
2022/04/02 11:17:47;;;;;;;10.77;4.90;;;0.60;99.90;;;;;;5077938;28;20418;-66
2022/04/02 11:20:17;;;;;;;6.63;3.77;;;0.70;99.90;;;;;;5078233;28;20447;-65
2022/04/02 11:22:52;;;;;;;12.20;5.70;;;0.70;99.90;;;;;;5065659;28;20525;-66
2022/04/02 11:25:31;;;;;;;9.47;5.03;;;0.80;99.90;;;;;;5067955;28;20452;-66
2022/04/02 11:28:10;;;;;;;9.73;4.87;;;0.80;99.90;;;;;;5087494;28;20500;-66
2022/04/02 11:30:40;;;;;;;5.60;3.93;;;0.80;99.90;;;;;;5074446;28;20974;-66
2022/04/02 11:33:16;;;;;;;9.73;4.27;;;0.90;99.90;;;;;;5069755;28;20437;-67
2022/04/02 11:35:50;;;;;;;8.03;4.20;;;1.10;99.90;;;;;;5074698;28;20415;-67
2022/04/02 11:38:20;;;;;;;11.83;5.23;;;1.00;99.90;;;;;;5073953;28;20947;-66
2022/04/02 11:40:57;;;;;;;9.20;4.40;;;1.10;99.90;;;;;;5080821;28;20451;-66
2022/04/02 11:43:37;;;;;;;6.50;3.90;;;1.00;99.90;;;;;;5066285;28;20891;-67
2022/04/02 11:46:08;;;;;;;7.57;4.40;;;1.10;99.90;;;;;;5080541;28;20893;-68
2022/04/02 11:48:37;;;;;;;7.70;4.17;;;1.10;99.90;;;;;;5086757;28;20433;-66
2022/04/02 11:51:17;;;;;;;9.37;3.97;;;1.10;99.90;;;;;;5073782;28;20439;-68
2022/04/02 11:53:44;;;;;;;6.90;4.10;;;1.00;99.90;;;;;;5084660;28;20509;-67
2022/04/02 11:56:27;;;;;;;10.13;4.57;;;1.00;99.90;;;;;;5075589;28;20906;-67
2022/04/02 11:58:55;;;;;;;7.13;4.60;;;1.00;99.90;;;;;;5073256;28;21077;-66
2022/04/02 12:01:21;;;;;;;7.30;4.33;;;0.90;99.90;;;;;;5074156;28;20550;-66
2022/04/02 12:04:05;;;;;;;9.30;4.23;;;0.90;99.90;;;;;;5076183;28;21247;-66
2022/04/02 12:06:35;;;;;;;7.10;3.90;;;0.80;99.90;;;;;;5079933;28;20875;-66
2022/04/02 12:09:24;;;;;;;10.87;4.40;;;0.70;99.90;;;;;;5067171;28;20415;-67
2022/04/02 12:11:53;;;;;;;8.03;4.47;;;0.70;99.90;;;;;;5079382;28;20995;-66
2022/04/02 12:14:39;;;;;;;7.50;5.30;;;0.80;99.90;;;;;;5073435;28;20475;-66
2022/04/02 12:17:09;;;;;;;10.63;5.20;;;0.80;99.90;;;;;;5069472;28;20934;-66
2022/04/02 12:19:34;;;;;;;6.67;4.23;;;0.80;99.90;;;;;;5058858;28;20838;-67
2022/04/02 12:22:01;;;;;;;8.00;5.37;;;1.00;99.90;;;;;;5071079;28;20517;-67
2022/04/02 12:24:37;;;;;;;6.67;3.93;;;1.00;99.90;;;;;;5064268;28;20216;-68
2022/04/02 12:27:07;;;;;;;8.40;5.00;;;0.90;99.90;;;;;;5068273;28;21312;-67
2022/04/02 12:29:33;;;;;;;9.23;4.73;;;0.90;99.90;;;;;;5077080;28;21265;-66
2022/04/02 12:32:00;;;;;;;6.67;3.70;;;0.90;99.90;;;;;;5065205;28;20446;-66
2022/04/02 12:34:28;;;;;;;7.83;4.40;;;0.70;99.90;;;;;;5070771;28;20430;-66
2022/04/02 12:37:02;;;;;;;7.63;3.87;;;0.70;99.90;;;;;;5070282;28;20415;-67
2022/04/02 12:39:27;;;;;;;8.27;4.43;;;0.70;99.90;;;;;;5081163;28;20472;-67
2022/04/02 12:41:53;;;;;;;6.17;3.70;;;0.80;99.90;;;;;;5074503;28;20490;-66
2022/04/02 12:44:21;;;;;;;8.57;4.50;;;0.80;99.90;;;;;;5077110;28;20256;-67
2022/04/02 12:46:47;;;;;;;7.70;4.50;;;0.90;99.90;;;;;;5067224;28;20434;-67
2022/04/02 12:49:34;;;;;;;7.77;4.67;;;0.90;99.90;;;;;;5081196;28;20423;-67
2022/04/02 12:52:17;;;;;;;7.47;4.30;;;1.10;99.90;;;;;;5084976;28;20433;-68
2022/04/02 12:54:45;;;;;;;5.37;3.20;;;1.20;99.90;;;;;;5073130;28;20423;-67
2022/04/02 12:57:15;;;;;;;9.70;4.87;;;1.10;99.90;;;;;;5078323;28;20414;-67
2022/04/02 12:59:43;;;;;;;8.77;4.90;;;1.10;99.90;;;;;;5075969;28;20986;-67
2022/04/02 13:02:15;;;;;;;10.00;5.80;;;1.00;99.90;;;;;;5070189;28;20490;-66
2022/04/02 13:04:50;;;;;;;8.23;5.10;;;0.70;99.90;;;;;;5077292;28;20487;-65
2022/04/02 13:07:21;;;;;;;8.23;4.50;;;0.70;99.90;;;;;;5077252;28;20426;-64